sensor_id;sensor_type;location;lat;lon;timestamp;pressure;altitude;pressure_sealevel;temperature;humidity
13209;BME280;6669;42.678;23.332;2023-04-01T00:00:34;93677.59;;;11.82;100.00
13209;BME280;6669;42.678;23.332;2023-04-01T00:03:02;93679.41;;;11.74;100.00
13209;BME280;6669;42.678;23.332;2023-04-01T00:05:30;93672.81;;;11.58;100.00
13209;BME280;6669;42.678;23.332;2023-04-01T00:07:59;93684.44;;;11.56;100.00
13209;BME280;6669;42.678;23.332;2023-04-01T00:10:27;93679.03;;;11.51;100.00
13209;BME280;6669;42.678;23.332;2023-04-01T00:12:55;93679.22;;;11.49;100.00
13209;BME280;6669;42.678;23.332;2023-04-01T00:15:23;93682.81;;;11.41;100.00
13209;BME280;6669;42.678;23.332;2023-04-01T00:17:52;93681.63;;;11.31;100.00
13209;BME280;6669;42.678;23.332;2023-04-01T00:20:21;93690.44;;;11.23;100.00
13209;BME280;6669;42.678;23.332;2023-04-01T00:22:50;93687.63;;;11.18;100.00
13209;BME280;6669;42.678;23.332;2023-04-01T00:25:18;93686.22;;;11.15;100.00
13209;BME280;6669;42.678;23.332;2023-04-01T00:27:46;93694.81;;;11.02;100.00
13209;BME280;6669;42.678;23.332;2023-04-01T00:30:14;93657.53;;;10.75;100.00
13209;BME280;6669;42.678;23.332;2023-04-01T00:32:43;93682.56;;;10.89;100.00
13209;BME280;6669;42.678;23.332;2023-04-01T00:35:12;93674.75;;;10.83;100.00
13209;BME280;6669;42.678;23.332;2023-04-01T00:37:40;93674.19;;;10.94;100.00
13209;BME280;6669;42.678;23.332;2023-04-01T00:40:23;93679.16;;;10.89;100.00
13209;BME280;6669;42.678;23.332;2023-04-01T00:42:51;93663.56;;;10.82;100.00
13209;BME280;6669;42.678;23.332;2023-04-01T00:45:29;93666.09;;;10.62;100.00
13209;BME280;6669;42.678;23.332;2023-04-01T00:48:00;93663.50;;;10.55;100.00
13209;BME280;6669;42.678;23.332;2023-04-01T00:50:31;93624.69;;;10.47;100.00
13209;BME280;6669;42.678;23.332;2023-04-01T00:53:01;93635.50;;;10.51;100.00
13209;BME280;6669;42.678;23.332;2023-04-01T00:55:33;93642.66;;;10.49;100.00
13209;BME280;6669;42.678;23.332;2023-04-01T00:58:03;93650.25;;;10.43;100.00
13209;BME280;6669;42.678;23.332;2023-04-01T01:00:34;93636.56;;;10.21;100.00
13209;BME280;6669;42.678;23.332;2023-04-01T01:03:03;93627.56;;;10.24;100.00
13209;BME280;6669;42.678;23.332;2023-04-01T01:05:43;93624.97;;;10.24;100.00
13209;BME280;6669;42.678;23.332;2023-04-01T01:08:18;93612.03;;;9.89;100.00
13209;BME280;6669;42.678;23.332;2023-04-01T01:10:50;93614.50;;;9.97;100.00
13209;BME280;6669;42.678;23.332;2023-04-01T01:13:24;93617.81;;;9.84;100.00
13209;BME280;6669;42.678;23.332;2023-04-01T01:15:57;93611.56;;;9.72;100.00
13209;BME280;6669;42.678;23.332;2023-04-01T01:18:33;93608.47;;;9.90;100.00
13209;BME280;6669;42.678;23.332;2023-04-01T01:21:41;93606.63;;;9.84;100.00
13209;BME280;6669;42.678;23.332;2023-04-01T01:24:27;93599.59;;;9.77;100.00
13209;BME280;6669;42.678;23.332;2023-04-01T01:27:03;93587.09;;;9.88;100.00
13209;BME280;6669;42.678;23.332;2023-04-01T01:32:55;93592.56;;;10.06;100.00
13209;BME280;6669;42.678;23.332;2023-04-01T01:35:28;93592.91;;;9.96;100.00
13209;BME280;6669;42.678;23.332;2023-04-01T01:38:02;93586.16;;;10.09;100.00
13209;BME280;6669;42.678;23.332;2023-04-01T01:40:32;93583.78;;;10.07;100.00
13209;BME280;6669;42.678;23.332;2023-04-01T01:43:11;93556.19;;;10.06;100.00
13209;BME280;6669;42.678;23.332;2023-04-01T01:45:43;93578.03;;;10.19;100.00
13209;BME280;6669;42.678;23.332;2023-04-01T01:48:15;93576.00;;;10.14;100.00
13209;BME280;6669;42.678;23.332;2023-04-01T01:50:47;93584.63;;;10.28;100.00
13209;BME280;6669;42.678;23.332;2023-04-01T01:53:16;93588.34;;;10.05;100.00
13209;BME280;6669;42.678;23.332;2023-04-01T01:55:45;93566.84;;;10.25;100.00
13209;BME280;6669;42.678;23.332;2023-04-01T01:58:16;93577.84;;;10.27;100.00
13209;BME280;6669;42.678;23.332;2023-04-01T02:00:48;93578.44;;;10.22;100.00
13209;BME280;6669;42.678;23.332;2023-04-01T02:03:20;93541.66;;;10.19;100.00
13209;BME280;6669;42.678;23.332;2023-04-01T02:05:52;93558.94;;;10.53;100.00
13209;BME280;6669;42.678;23.332;2023-04-01T02:08:24;93560.75;;;10.59;100.00
13209;BME280;6669;42.678;23.332;2023-04-01T02:10:56;93529.78;;;10.58;100.00
13209;BME280;6669;42.678;23.332;2023-04-01T02:13:30;93541.97;;;10.77;100.00
13209;BME280;6669;42.678;23.332;2023-04-01T02:16:03;93529.78;;;10.78;100.00
13209;BME280;6669;42.678;23.332;2023-04-01T02:18:35;93547.16;;;11.04;100.00
13209;BME280;6669;42.678;23.332;2023-04-01T02:21:05;93550.16;;;11.15;100.00
13209;BME280;6669;42.678;23.332;2023-04-01T02:23:35;93549.56;;;11.06;100.00
13209;BME280;6669;42.678;23.332;2023-04-01T02:26:05;93536.59;;;10.86;100.00
13209;BME280;6669;42.678;23.332;2023-04-01T02:28:37;93554.78;;;10.92;100.00
13209;BME280;6669;42.678;23.332;2023-04-01T02:31:08;93548.56;;;11.00;100.00
13209;BME280;6669;42.678;23.332;2023-04-01T02:33:38;93557.34;;;11.06;100.00
13209;BME280;6669;42.678;23.332;2023-04-01T02:36:12;93557.56;;;10.98;100.00
13209;BME280;6669;42.678;23.332;2023-04-01T02:38:41;93559.97;;;10.86;100.00
13209;BME280;6669;42.678;23.332;2023-04-01T02:41:10;93539.16;;;10.79;100.00
13209;BME280;6669;42.678;23.332;2023-04-01T02:43:38;93566.19;;;10.91;100.00
13209;BME280;6669;42.678;23.332;2023-04-01T02:46:06;93541.19;;;10.84;100.00
13209;BME280;6669;42.678;23.332;2023-04-01T02:48:34;93568.78;;;11.05;100.00
13209;BME280;6669;42.678;23.332;2023-04-01T02:51:02;93566.78;;;11.00;100.00
13209;BME280;6669;42.678;23.332;2023-04-01T02:53:32;93574.38;;;10.95;100.00
13209;BME280;6669;42.678;23.332;2023-04-01T02:56:00;93561.75;;;10.92;100.00
13209;BME280;6669;42.678;23.332;2023-04-01T02:58:28;93581.19;;;11.03;100.00
13209;BME280;6669;42.678;23.332;2023-04-01T03:00:56;93590.78;;;11.02;100.00
13209;BME280;6669;42.678;23.332;2023-04-01T03:03:24;93588.56;;;10.99;100.00
13209;BME280;6669;42.678;23.332;2023-04-01T03:05:52;93576.78;;;10.96;100.00
13209;BME280;6669;42.678;23.332;2023-04-01T03:08:22;93573.38;;;10.89;100.00
13209;BME280;6669;42.678;23.332;2023-04-01T03:10:51;93603.56;;;10.84;100.00
13209;BME280;6669;42.678;23.332;2023-04-01T03:13:19;93579.19;;;10.78;100.00
13209;BME280;6669;42.678;23.332;2023-04-01T03:15:47;93593.16;;;10.84;100.00
13209;BME280;6669;42.678;23.332;2023-04-01T03:18:15;93588.75;;;10.84;100.00
13209;BME280;6669;42.678;23.332;2023-04-01T03:20:43;93588.56;;;10.92;100.00
13209;BME280;6669;42.678;23.332;2023-04-01T03:23:11;93579.56;;;10.82;100.00
13209;BME280;6669;42.678;23.332;2023-04-01T03:25:40;93589.97;;;10.82;100.00
13209;BME280;6669;42.678;23.332;2023-04-01T03:28:09;93611.94;;;10.66;100.00
13209;BME280;6669;42.678;23.332;2023-04-01T03:30:37;93585.28;;;10.43;100.00
13209;BME280;6669;42.678;23.332;2023-04-01T03:33:05;93605.13;;;10.58;100.00
13209;BME280;6669;42.678;23.332;2023-04-01T03:35:33;93577.28;;;10.38;100.00
13209;BME280;6669;42.678;23.332;2023-04-01T03:38:02;93603.13;;;10.60;100.00
13209;BME280;6669;42.678;23.332;2023-04-01T03:40:30;93595.91;;;10.49;100.00
13209;BME280;6669;42.678;23.332;2023-04-01T03:42:59;93585.94;;;10.66;100.00
13209;BME280;6669;42.678;23.332;2023-04-01T03:45:29;93562.78;;;10.64;100.00
13209;BME280;6669;42.678;23.332;2023-04-01T03:47:57;93559.16;;;10.65;100.00
13209;BME280;6669;42.678;23.332;2023-04-01T03:50:25;93540.97;;;10.78;100.00
13209;BME280;6669;42.678;23.332;2023-04-01T03:52:54;93539.16;;;10.79;100.00
13209;BME280;6669;42.678;23.332;2023-04-01T03:55:22;93523.97;;;10.83;100.00
13209;BME280;6669;42.678;23.332;2023-04-01T03:57:50;93509.78;;;10.85;100.00
13209;BME280;6669;42.678;23.332;2023-04-01T04:00:18;93489.97;;;10.84;100.00
13209;BME280;6669;42.678;23.332;2023-04-01T04:02:48;93470.81;;;10.72;100.00
13209;BME280;6669;42.678;23.332;2023-04-01T04:05:16;93489.78;;;10.92;100.00
13209;BME280;6669;42.678;23.332;2023-04-01T04:07:44;93487.75;;;10.94;100.00
13209;BME280;6669;42.678;23.332;2023-04-01T04:10:12;93481.16;;;10.92;100.00
13209;BME280;6669;42.678;23.332;2023-04-01T04:12:41;93463.19;;;10.97;100.00
13209;BME280;6669;42.678;23.332;2023-04-01T04:15:09;93467.97;;;11.00;100.00
13209;BME280;6669;42.678;23.332;2023-04-01T04:17:38;93441.81;;;10.75;100.00
13209;BME280;6669;42.678;23.332;2023-04-01T04:20:08;93476.56;;;10.94;100.00
13209;BME280;6669;42.678;23.332;2023-04-01T04:22:36;93462.00;;;10.79;100.00
13209;BME280;6669;42.678;23.332;2023-04-01T04:25:05;93468.78;;;10.87;100.00
13209;BME280;6669;42.678;23.332;2023-04-01T04:27:33;93455.41;;;10.84;100.00
13209;BME280;6669;42.678;23.332;2023-04-01T04:30:02;93445.78;;;10.84;100.00
13209;BME280;6669;42.678;23.332;2023-04-01T04:32:30;93447.59;;;10.84;100.00
13209;BME280;6669;42.678;23.332;2023-04-01T04:34:58;93433.81;;;10.63;100.00
13209;BME280;6669;42.678;23.332;2023-04-01T04:37:27;93417.41;;;10.62;100.00
13209;BME280;6669;42.678;23.332;2023-04-01T04:39:55;93442.41;;;10.70;100.00
13209;BME280;6669;42.678;23.332;2023-04-01T04:42:23;93436.22;;;10.71;100.00
13209;BME280;6669;42.678;23.332;2023-04-01T04:44:51;93422.44;;;10.71;100.00
13209;BME280;6669;42.678;23.332;2023-04-01T04:47:19;93432.22;;;10.69;100.00
13209;BME280;6669;42.678;23.332;2023-04-01T04:49:47;93437.84;;;10.59;100.00
13209;BME280;6669;42.678;23.332;2023-04-01T04:52:15;93435.03;;;10.47;100.00
13209;BME280;6669;42.678;23.332;2023-04-01T04:54:44;93414.25;;;10.47;100.00
13209;BME280;6669;42.678;23.332;2023-04-01T04:57:12;93394.88;;;10.36;100.00
13209;BME280;6669;42.678;23.332;2023-04-01T04:59:41;93386.03;;;10.30;100.00
13209;BME280;6669;42.678;23.332;2023-04-01T05:02:09;93428.78;;;10.28;100.00
13209;BME280;6669;42.678;23.332;2023-04-01T05:04:37;93433.16;;;9.94;100.00
13209;BME280;6669;42.678;23.332;2023-04-01T05:07:05;93407.00;;;10.09;100.00
13209;BME280;6669;42.678;23.332;2023-04-01T05:09:33;93397.44;;;10.09;100.00
13209;BME280;6669;42.678;23.332;2023-04-01T05:12:02;93397.03;;;10.12;100.00
13209;BME280;6669;42.678;23.332;2023-04-01T05:14:30;93405.22;;;10.09;100.00
13209;BME280;6669;42.678;23.332;2023-04-01T05:16:58;93409.19;;;10.05;100.00
13209;BME280;6669;42.678;23.332;2023-04-01T05:19:26;93380.34;;;9.46;100.00
13209;BME280;6669;42.678;23.332;2023-04-01T05:21:54;93384.63;;;9.81;100.00
13209;BME280;6669;42.678;23.332;2023-04-01T05:24:22;93378.47;;;9.95;100.00
13209;BME280;6669;42.678;23.332;2023-04-01T05:26:50;93373.69;;;9.99;100.00
13209;BME280;6669;42.678;23.332;2023-04-01T05:29:22;93367.09;;;10.03;100.00
13209;BME280;6669;42.678;23.332;2023-04-01T05:31:50;93365.47;;;10.15;100.00
13209;BME280;6669;42.678;23.332;2023-04-01T05:34:18;93361.09;;;10.09;100.00
13209;BME280;6669;42.678;23.332;2023-04-01T05:36:46;93394.66;;;10.11;100.00
13209;BME280;6669;42.678;23.332;2023-04-01T05:39:14;93388.84;;;10.09;100.00
13209;BME280;6669;42.678;23.332;2023-04-01T05:41:42;93353.88;;;9.91;100.00
13209;BME280;6669;42.678;23.332;2023-04-01T05:44:11;93382.44;;;10.31;100.00
13209;BME280;6669;42.678;23.332;2023-04-01T05:46:41;93378.50;;;10.42;100.00
13209;BME280;6669;42.678;23.332;2023-04-01T05:49:10;93377.25;;;10.58;100.00
13209;BME280;6669;42.678;23.332;2023-04-01T05:51:38;93373.66;;;10.66;100.00
13209;BME280;6669;42.678;23.332;2023-04-01T05:54:06;93352.84;;;10.66;100.00
13209;BME280;6669;42.678;23.332;2023-04-01T05:56:34;93371.59;;;10.88;100.00
13209;BME280;6669;42.678;23.332;2023-04-01T05:59:02;93345.22;;;10.85;100.00
13209;BME280;6669;42.678;23.332;2023-04-01T06:01:30;93339.56;;;11.01;100.00
13209;BME280;6669;42.678;23.332;2023-04-01T06:03:59;93367.81;;;11.36;100.00
13209;BME280;6669;42.678;23.332;2023-04-01T06:06:28;93363.69;;;11.60;100.00
13209;BME280;6669;42.678;23.332;2023-04-01T06:08:58;93356.81;;;11.73;100.00
13209;BME280;6669;42.678;23.332;2023-04-01T06:11:33;93360.81;;;12.07;100.00
13209;BME280;6669;42.678;23.332;2023-04-01T06:14:14;93363.56;;;12.38;100.00
13209;BME280;6669;42.678;23.332;2023-04-01T06:16:56;93355.72;;;12.63;100.00
13209;BME280;6669;42.678;23.332;2023-04-01T06:19:36;93360.53;;;12.85;100.00
13209;BME280;6669;42.678;23.332;2023-04-01T06:22:34;93345.66;;;13.04;100.00
13209;BME280;6669;42.678;23.332;2023-04-01T06:25:30;93355.97;;;13.17;100.00
13209;BME280;6669;42.678;23.332;2023-04-01T06:31:06;93364.38;;;13.01;100.00
13209;BME280;6669;42.678;23.332;2023-04-01T06:33:50;93354.38;;;13.16;100.00
13209;BME280;6669;42.678;23.332;2023-04-01T06:36:35;93351.06;;;13.21;100.00
13209;BME280;6669;42.678;23.332;2023-04-01T06:39:34;93341.81;;;13.25;100.00
13209;BME280;6669;42.678;23.332;2023-04-01T06:42:22;93333.84;;;13.20;100.00
13209;BME280;6669;42.678;23.332;2023-04-01T06:45:01;93334.28;;;13.17;100.00
13209;BME280;6669;42.678;23.332;2023-04-01T06:47:43;93322.03;;;12.80;100.00
13209;BME280;6669;42.678;23.332;2023-04-01T06:50:21;93331.59;;;12.86;100.00
13209;BME280;6669;42.678;23.332;2023-04-01T06:52:56;93309.81;;;12.81;100.00
13209;BME280;6669;42.678;23.332;2023-04-01T06:55:32;93315.47;;;12.96;100.00
13209;BME280;6669;42.678;23.332;2023-04-01T06:58:05;93297.94;;;12.85;100.00
13209;BME280;6669;42.678;23.332;2023-04-01T07:00:40;93277.22;;;12.71;100.00
13209;BME280;6669;42.678;23.332;2023-04-01T07:03:18;93302.91;;;13.05;100.00
13209;BME280;6669;42.678;23.332;2023-04-01T07:05:48;93287.72;;;12.83;100.00
13209;BME280;6669;42.678;23.332;2023-04-01T07:08:21;93316.47;;;12.95;100.00
13209;BME280;6669;42.678;23.332;2023-04-01T07:10:53;93295.69;;;12.88;100.00
13209;BME280;6669;42.678;23.332;2023-04-01T07:13:26;93293.94;;;13.01;100.00
13209;BME280;6669;42.678;23.332;2023-04-01T07:16:00;93301.78;;;13.01;100.00
13209;BME280;6669;42.678;23.332;2023-04-01T07:18:34;93296.16;;;13.16;100.00
13209;BME280;6669;42.678;23.332;2023-04-01T07:21:06;93257.91;;;13.09;100.00
13209;BME280;6669;42.678;23.332;2023-04-01T07:23:42;93292.66;;;13.22;100.00
13209;BME280;6669;42.678;23.332;2023-04-01T07:26:17;93301.50;;;13.39;100.00
13209;BME280;6669;42.678;23.332;2023-04-01T07:28:45;93291.13;;;13.33;100.00
13209;BME280;6669;42.678;23.332;2023-04-01T07:31:20;93281.88;;;13.37;100.00
13209;BME280;6669;42.678;23.332;2023-04-01T07:33:57;93311.56;;;13.66;100.00
13209;BME280;6669;42.678;23.332;2023-04-01T07:36:33;93314.19;;;13.66;100.00
13209;BME280;6669;42.678;23.332;2023-04-01T07:39:16;93309.09;;;13.41;100.00
13209;BME280;6669;42.678;23.332;2023-04-01T07:41:51;93310.25;;;13.45;100.00
13209;BME280;6669;42.678;23.332;2023-04-01T07:44:31;93305.31;;;13.55;100.00
13209;BME280;6669;42.678;23.332;2023-04-01T07:47:12;93283.59;;;13.43;100.00
13209;BME280;6669;42.678;23.332;2023-04-01T07:49:55;93289.16;;;13.47;100.00
13209;BME280;6669;42.678;23.332;2023-04-01T07:52:31;93287.94;;;13.61;100.00
13209;BME280;6669;42.678;23.332;2023-04-01T07:55:08;93273.00;;;13.68;100.00
13209;BME280;6669;42.678;23.332;2023-04-01T07:57:43;93295.72;;;13.80;100.00
13209;BME280;6669;42.678;23.332;2023-04-01T08:00:19;93289.34;;;13.76;100.00
13209;BME280;6669;42.678;23.332;2023-04-01T08:03:07;93277.88;;;13.77;100.00
13209;BME280;6669;42.678;23.332;2023-04-01T08:05:47;93289.34;;;13.76;100.00
13209;BME280;6669;42.678;23.332;2023-04-01T08:08:22;93298.78;;;13.88;100.00
13209;BME280;6669;42.678;23.332;2023-04-01T08:10:59;93262.78;;;13.79;100.00
13209;BME280;6669;42.678;23.332;2023-04-01T08:13:36;93232.22;;;13.79;100.00
13209;BME280;6669;42.678;23.332;2023-04-01T08:16:12;93266.31;;;14.08;100.00
13209;BME280;6669;42.678;23.332;2023-04-01T08:18:46;93260.53;;;14.18;100.00
13209;BME280;6669;42.678;23.332;2023-04-01T08:21:21;93242.81;;;14.20;100.00
13209;BME280;6669;42.678;23.332;2023-04-01T08:23:52;93224.63;;;14.37;100.00
13209;BME280;6669;42.678;23.332;2023-04-01T08:26:30;93249.47;;;14.51;100.00
13209;BME280;6669;42.678;23.332;2023-04-01T08:29:06;93240.72;;;14.69;100.00
13209;BME280;6669;42.678;23.332;2023-04-01T08:31:40;93215.81;;;14.67;100.00
13209;BME280;6669;42.678;23.332;2023-04-01T08:34:14;93245.50;;;15.01;100.00
13209;BME280;6669;42.678;23.332;2023-04-01T08:36:47;93206.06;;;14.91;100.00
13209;BME280;6669;42.678;23.332;2023-04-01T08:39:24;93195.69;;;15.08;100.00
13209;BME280;6669;42.678;23.332;2023-04-01T08:42:30;93193.28;;;15.07;100.00
13209;BME280;6669;42.678;23.332;2023-04-01T08:45:18;93181.69;;;15.02;100.00
13209;BME280;6669;42.678;23.332;2023-04-01T08:48:12;93191.38;;;15.02;100.00
13209;BME280;6669;42.678;23.332;2023-04-01T08:51:13;93184.56;;;15.18;100.00
13209;BME280;6669;42.678;23.332;2023-04-01T08:54:06;93175.41;;;15.32;100.00
13209;BME280;6669;42.678;23.332;2023-04-01T08:56:47;93169.38;;;15.49;100.00
13209;BME280;6669;42.678;23.332;2023-04-01T08:59:45;93175.47;;;15.72;98.11
13209;BME280;6669;42.678;23.332;2023-04-01T09:02:47;93180.16;;;16.04;95.29
13209;BME280;6669;42.678;23.332;2023-04-01T09:05:45;93184.78;;;16.36;90.95
13209;BME280;6669;42.678;23.332;2023-04-01T09:08:30;93178.88;;;16.67;84.32
13209;BME280;6669;42.678;23.332;2023-04-01T09:11:06;93182.28;;;16.68;78.00
13209;BME280;6669;42.678;23.332;2023-04-01T09:13:46;93179.88;;;16.89;76.75
13209;BME280;6669;42.678;23.332;2023-04-01T09:16:24;93171.41;;;17.04;75.63
13209;BME280;6669;42.678;23.332;2023-04-01T09:19:28;93168.97;;;17.24;72.72
13209;BME280;6669;42.678;23.332;2023-04-01T09:22:22;93169.03;;;17.35;72.05
13209;BME280;6669;42.678;23.332;2023-04-01T09:25:12;93166.78;;;17.48;70.88
13209;BME280;6669;42.678;23.332;2023-04-01T09:27:45;93156.94;;;17.28;69.29
13209;BME280;6669;42.678;23.332;2023-04-01T09:30:40;93143.34;;;17.37;69.12
13209;BME280;6669;42.678;23.332;2023-04-01T09:36:32;93148.06;;;17.40;67.71
13209;BME280;6669;42.678;23.332;2023-04-01T09:39:20;93135.94;;;17.28;66.76
13209;BME280;6669;42.678;23.332;2023-04-01T09:42:06;93115.41;;;17.25;67.47
13209;BME280;6669;42.678;23.332;2023-04-01T09:44:36;93113.81;;;17.24;66.26
13209;BME280;6669;42.678;23.332;2023-04-01T09:47:16;93127.75;;;17.62;65.89
13209;BME280;6669;42.678;23.332;2023-04-01T09:50:00;93125.22;;;17.78;64.56
13209;BME280;6669;42.678;23.332;2023-04-01T09:52:44;93109.59;;;17.93;65.01
13209;BME280;6669;42.678;23.332;2023-04-01T09:55:34;93115.97;;;18.08;65.00
13209;BME280;6669;42.678;23.332;2023-04-01T09:58:39;93097.13;;;18.21;64.44
13209;BME280;6669;42.678;23.332;2023-04-01T10:01:38;93089.25;;;18.32;64.05
13209;BME280;6669;42.678;23.332;2023-04-01T10:04:47;93082.47;;;18.46;63.69
13209;BME280;6669;42.678;23.332;2023-04-01T10:07:40;93075.09;;;18.43;64.61
13209;BME280;6669;42.678;23.332;2023-04-01T10:13:49;93079.38;;;18.75;64.00
13209;BME280;6669;42.678;23.332;2023-04-01T10:16:50;93073.13;;;18.91;64.17
13209;BME280;6669;42.678;23.332;2023-04-01T10:22:54;93075.44;;;18.77;65.06
13209;BME280;6669;42.678;23.332;2023-04-01T10:25:42;93065.94;;;18.56;64.45
13209;BME280;6669;42.678;23.332;2023-04-01T10:41:27;93041.09;;;18.21;66.21
13209;BME280;6669;42.678;23.332;2023-04-01T10:48:00;93050.53;;;18.11;67.04
13209;BME280;6669;42.678;23.332;2023-04-01T10:54:17;93035.41;;;17.86;67.64
13209;BME280;6669;42.678;23.332;2023-04-01T10:56:55;93034.25;;;17.67;69.96
13209;BME280;6669;42.678;23.332;2023-04-01T11:00:14;93026.34;;;17.61;69.61
13209;BME280;6669;42.678;23.332;2023-04-01T11:18:56;93014.28;;;17.65;69.37
13209;BME280;6669;42.678;23.332;2023-04-01T11:21:49;93015.84;;;17.61;70.04
13209;BME280;6669;42.678;23.332;2023-04-01T11:24:46;93017.63;;;17.56;70.63
13209;BME280;6669;42.678;23.332;2023-04-01T11:27:37;93038.09;;;17.48;70.51
13209;BME280;6669;42.678;23.332;2023-04-01T11:30:19;93017.53;;;16.97;68.47
13209;BME280;6669;42.678;23.332;2023-04-01T11:32:53;93027.03;;;16.49;66.23
13209;BME280;6669;42.678;23.332;2023-04-01T11:35:38;93095.94;;;16.17;72.40
13209;BME280;6669;42.678;23.332;2023-04-01T11:38:19;93087.47;;;15.53;89.18
13209;BME280;6669;42.678;23.332;2023-04-01T11:40:58;93122.94;;;14.93;89.50
13209;BME280;6669;42.678;23.332;2023-04-01T11:43:32;93176.59;;;14.55;100.00
13209;BME280;6669;42.678;23.332;2023-04-01T11:46:06;93171.72;;;13.82;100.00
13209;BME280;6669;42.678;23.332;2023-04-01T11:48:49;93194.88;;;13.24;100.00
13209;BME280;6669;42.678;23.332;2023-04-01T11:51:50;93247.47;;;12.23;100.00
13209;BME280;6669;42.678;23.332;2023-04-01T11:54:37;93285.38;;;11.30;100.00
13209;BME280;6669;42.678;23.332;2023-04-01T11:57:27;93278.88;;;10.69;100.00
13209;BME280;6669;42.678;23.332;2023-04-01T12:03:10;93283.19;;;10.16;100.00
13209;BME280;6669;42.678;23.332;2023-04-01T12:05:48;93253.25;;;9.93;100.00
13209;BME280;6669;42.678;23.332;2023-04-01T12:08:30;93268.22;;;10.11;100.00
13209;BME280;6669;42.678;23.332;2023-04-01T12:11:03;93249.88;;;9.93;100.00
13209;BME280;6669;42.678;23.332;2023-04-01T12:13:40;93259.66;;;9.84;100.00
13209;BME280;6669;42.678;23.332;2023-04-01T12:16:26;93253.47;;;9.85;100.00
13209;BME280;6669;42.678;23.332;2023-04-01T12:19:03;93237.84;;;10.05;100.00
13209;BME280;6669;42.678;23.332;2023-04-01T12:21:36;93260.78;;;10.35;100.00
13209;BME280;6669;42.678;23.332;2023-04-01T12:24:44;93250.13;;;10.63;100.00
13209;BME280;6669;42.678;23.332;2023-04-01T12:27:25;93238.72;;;11.10;100.00
13209;BME280;6669;42.678;23.332;2023-04-01T12:30:24;93247.81;;;11.26;100.00
13209;BME280;6669;42.678;23.332;2023-04-01T12:33:05;93253.66;;;11.47;100.00
13209;BME280;6669;42.678;23.332;2023-04-01T12:35:53;93197.00;;;11.23;100.00
13209;BME280;6669;42.678;23.332;2023-04-01T12:38:31;93252.94;;;11.39;100.00
13209;BME280;6669;42.678;23.332;2023-04-01T12:41:09;93216.84;;;10.86;100.00
13209;BME280;6669;42.678;23.332;2023-04-01T12:44:16;93263.38;;;10.94;100.00
13209;BME280;6669;42.678;23.332;2023-04-01T12:47:06;93254.81;;;10.87;100.00
13209;BME280;6669;42.678;23.332;2023-04-01T12:49:54;93240.00;;;10.94;100.00
13209;BME280;6669;42.678;23.332;2023-04-01T12:52:36;93245.13;;;11.07;100.00
13209;BME280;6669;42.678;23.332;2023-04-01T12:55:35;93242.34;;;11.02;100.00
13209;BME280;6669;42.678;23.332;2023-04-01T12:58:19;93212.00;;;10.89;100.00
13209;BME280;6669;42.678;23.332;2023-04-01T13:01:10;93195.06;;;10.80;100.00
13209;BME280;6669;42.678;23.332;2023-04-01T13:03:58;93212.09;;;11.08;100.00
13209;BME280;6669;42.678;23.332;2023-04-01T13:06:40;93200.72;;;11.09;100.00
13209;BME280;6669;42.678;23.332;2023-04-01T13:09:21;93195.25;;;11.17;100.00
13209;BME280;6669;42.678;23.332;2023-04-01T13:12:05;93186.97;;;11.27;100.00
13209;BME280;6669;42.678;23.332;2023-04-01T13:14:57;93166.25;;;11.64;100.00
13209;BME280;6669;42.678;23.332;2023-04-01T13:17:36;93130.91;;;12.00;100.00
13209;BME280;6669;42.678;23.332;2023-04-01T13:20:15;93158.47;;;12.87;100.00
13209;BME280;6669;42.678;23.332;2023-04-01T13:22:57;93148.66;;;13.79;100.00
13209;BME280;6669;42.678;23.332;2023-04-01T13:25:35;93152.47;;;14.77;100.00
13209;BME280;6669;42.678;23.332;2023-04-01T13:28:11;93133.34;;;15.39;100.00
13209;BME280;6669;42.678;23.332;2023-04-01T13:30:47;93157.28;;;15.99;100.00
13209;BME280;6669;42.678;23.332;2023-04-01T13:33:25;93155.06;;;16.08;100.00
13209;BME280;6669;42.678;23.332;2023-04-01T13:36:05;93125.97;;;16.09;100.00
13209;BME280;6669;42.678;23.332;2023-04-01T13:39:03;93135.44;;;16.55;100.00
13209;BME280;6669;42.678;23.332;2023-04-01T13:41:49;93129.91;;;17.01;100.00
13209;BME280;6669;42.678;23.332;2023-04-01T13:44:22;93125.81;;;17.15;100.00
13209;BME280;6669;42.678;23.332;2023-04-01T13:47:06;93129.59;;;16.25;100.00
13209;BME280;6669;42.678;23.332;2023-04-01T13:49:53;93120.34;;;16.67;100.00
13209;BME280;6669;42.678;23.332;2023-04-01T13:52:37;93122.91;;;17.44;100.00
13209;BME280;6669;42.678;23.332;2023-04-01T13:58:22;93123.41;;;18.21;100.00
13209;BME280;6669;42.678;23.332;2023-04-01T14:00:56;93119.31;;;18.56;100.00
13209;BME280;6669;42.678;23.332;2023-04-01T14:03:41;93112.63;;;19.02;100.00
13209;BME280;6669;42.678;23.332;2023-04-01T14:06:18;93085.53;;;19.22;100.00
13209;BME280;6669;42.678;23.332;2023-04-01T14:08:59;93089.16;;;19.72;100.00
13209;BME280;6669;42.678;23.332;2023-04-01T14:11:36;93095.72;;;19.80;100.00
13209;BME280;6669;42.678;23.332;2023-04-01T14:14:17;93106.56;;;19.89;100.00
13209;BME280;6669;42.678;23.332;2023-04-01T14:23:19;93076.00;;;18.11;100.00
13209;BME280;6669;42.678;23.332;2023-04-01T14:26:09;93062.16;;;17.78;100.00
13209;BME280;6669;42.678;23.332;2023-04-01T14:28:48;93075.88;;;17.90;100.00
13209;BME280;6669;42.678;23.332;2023-04-01T14:31:30;93063.03;;;17.46;100.00
13209;BME280;6669;42.678;23.332;2023-04-01T14:34:10;93062.94;;;17.36;100.00
13209;BME280;6669;42.678;23.332;2023-04-01T14:37:01;93059.09;;;17.48;100.00
13209;BME280;6669;42.678;23.332;2023-04-01T14:42:59;93053.28;;;18.63;100.00
13209;BME280;6669;42.678;23.332;2023-04-01T14:46:01;93070.22;;;18.98;100.00
13209;BME280;6669;42.678;23.332;2023-04-01T14:48:34;93071.03;;;19.35;100.00
13209;BME280;6669;42.678;23.332;2023-04-01T14:51:09;93068.38;;;19.40;100.00